Terminal Aerodrome Forecast
Issued by NWS

Home | Current Version | Previous Version | Text Only | Print | Product List | Glossary On
Versions: 1 2 3 4 5 6 7 8 9 10 11 12 13 14 15 16 17 18 19 20 21
000
FTUS43 KILX 281402 AAB
TAFCMI
TAF AMD
KCMI 281402Z 2814/2912 25006KT 5SM BR BKN005
     FM281600 28011KT P6SM VCTS SCT008CB BKN045
     FM282000 29012KT P6SM VCSH BKN080
     FM290100 29007KT P6SM SCT200=

USA.gov is the U.S. government's official web portal to all federal, state and local government web resources and services.